createdAt,value
2023-04-18T00:01:12.487Z,15.60
2023-04-18T00:06:14.987Z,16.90
2023-04-18T00:11:17.464Z,16.60
2023-04-18T00:16:20.018Z,18.90
2023-04-18T00:21:22.718Z,17.00
2023-04-18T00:26:25.790Z,16.70
2023-04-18T00:31:28.399Z,21.10
2023-04-18T00:36:31.076Z,18.00
2023-04-18T00:41:33.664Z,20.10
2023-04-18T00:46:36.216Z,25.80
2023-04-18T00:51:39.580Z,20.10
2023-04-18T00:56:42.491Z,22.40
2023-04-18T01:01:45.301Z,20.90
2023-04-18T01:06:47.937Z,17.80
2023-04-18T01:11:50.487Z,19.60
2023-04-18T01:16:53.239Z,18.90
2023-04-18T01:21:55.779Z,20.40
2023-04-18T01:27:03.131Z,23.80
2023-04-18T01:32:06.418Z,20.20
2023-04-18T01:37:08.994Z,19.80
2023-04-18T01:42:11.553Z,24.00
2023-04-18T01:47:14.090Z,24.50
2023-04-18T01:52:17.383Z,21.90
2023-04-18T01:57:19.962Z,29.20
2023-04-18T02:02:22.852Z,17.90
2023-04-18T02:07:25.670Z,28.90
2023-04-18T02:12:28.139Z,24.00
2023-04-18T02:17:30.863Z,22.40
2023-04-18T02:22:33.585Z,22.10
2023-04-18T02:27:36.726Z,25.20
2023-04-18T02:32:39.323Z,20.40
2023-04-18T02:37:41.931Z,23.10
2023-04-18T02:42:44.788Z,24.50
2023-04-18T02:47:55.203Z,24.40
2023-04-18T02:52:58.392Z,22.50
2023-04-18T02:58:00.965Z,21.50
2023-04-18T03:03:03.850Z,28.80
2023-04-18T03:08:06.561Z,23.20
2023-04-18T03:13:09.071Z,23.80
2023-04-18T03:18:12.449Z,18.70
2023-04-18T03:23:14.986Z,20.60
2023-04-18T03:28:17.543Z,19.60
2023-04-18T03:33:20.088Z,21.50
2023-04-18T03:38:22.670Z,25.00
2023-04-18T03:43:25.357Z,21.40
2023-04-18T03:48:29.003Z,18.20
2023-04-18T03:53:31.694Z,21.90
2023-04-18T03:58:34.259Z,17.90
2023-04-18T04:03:37.158Z,18.80
2023-04-18T04:08:39.833Z,17.90
2023-04-18T04:13:42.374Z,22.80
2023-04-18T04:18:45.111Z,21.30
2023-04-18T04:23:48.000Z,18.40
2023-04-18T04:28:51.589Z,19.70
2023-04-18T04:33:54.148Z,18.40
2023-04-18T04:38:56.863Z,19.10
2023-04-18T04:44:01.841Z,28.70
2023-04-18T04:49:04.479Z,28.10
2023-04-18T04:54:07.109Z,21.30
2023-04-18T04:59:09.712Z,18.10
2023-04-18T05:04:12.891Z,16.30
2023-04-18T05:09:15.789Z,13.50
2023-04-18T05:14:18.706Z,14.50
2023-04-18T05:19:21.280Z,16.90
2023-04-18T05:24:23.883Z,15.90
2023-04-18T05:29:26.487Z,16.00
2023-04-18T05:34:29.144Z,24.60
2023-04-18T05:39:32.327Z,21.70
2023-04-18T05:44:34.918Z,30.90
2023-04-18T05:49:37.469Z,24.30
2023-04-18T05:54:40.152Z,27.30
2023-04-18T05:59:42.894Z,25.00
2023-04-18T06:04:46.187Z,26.70
2023-04-18T06:09:49.745Z,20.60
2023-04-18T06:14:52.365Z,22.10
2023-04-18T06:19:54.856Z,23.70
2023-04-18T06:24:57.497Z,19.60
2023-04-18T06:30:00.028Z,17.20
2023-04-18T06:35:02.706Z,15.10
2023-04-18T06:40:05.918Z,15.80
2023-04-18T06:45:10.722Z,18.10
2023-04-18T06:50:14.039Z,16.50
2023-04-18T06:55:16.603Z,12.30
2023-04-18T07:00:19.424Z,12.40
2023-04-18T07:05:22.054Z,11.80
2023-04-18T07:10:24.661Z,12.50
2023-04-18T07:15:27.198Z,13.30
2023-04-18T07:20:29.971Z,12.30
2023-04-18T07:25:32.556Z,12.20
2023-04-18T07:30:35.093Z,14.80
2023-04-18T07:35:37.699Z,12.00
2023-04-18T07:40:40.312Z,10.00
2023-04-18T07:45:43.287Z,10.10
2023-04-18T07:50:45.894Z,11.70
2023-04-18T07:55:48.981Z,9.70
2023-04-18T08:00:51.586Z,10.30
2023-04-18T08:05:54.089Z,13.20
2023-04-18T08:10:56.661Z,8.40
2023-04-18T08:16:00.114Z,9.30
2023-04-18T08:21:02.867Z,14.60
2023-04-18T08:26:05.424Z,8.40
2023-04-18T08:31:11.967Z,8.80
2023-04-18T08:36:14.531Z,8.10
2023-04-18T08:41:21.533Z,8.30
2023-04-18T08:46:24.153Z,8.40
2023-04-18T08:51:30.630Z,6.30
2023-04-18T08:56:33.167Z,6.90
2023-04-18T09:02:06.395Z,5.30
2023-04-18T09:07:10.851Z,6.10
2023-04-18T09:12:32.687Z,7.40
2023-04-18T09:17:45.492Z,6.40
2023-04-18T09:22:51.970Z,6.90
2023-04-18T09:27:57.230Z,7.80
2023-04-18T09:33:01.347Z,7.10
2023-04-18T09:38:04.848Z,6.80
2023-04-18T09:43:20.457Z,6.80
2023-04-18T09:48:23.031Z,6.70
2023-04-18T09:53:26.623Z,8.20
2023-04-18T09:58:32.866Z,6.90
2023-04-18T10:03:44.319Z,5.40
2023-04-18T10:08:49.027Z,6.30
2023-04-18T10:13:57.416Z,6.70
2023-04-18T10:19:29.496Z,6.00
2023-04-18T10:24:55.972Z,7.00
2023-04-18T10:29:58.603Z,5.40
2023-04-18T10:35:01.781Z,7.10
2023-04-18T10:40:07.315Z,7.40
2023-04-18T10:45:26.992Z,7.10
2023-04-18T10:50:29.713Z,7.10
2023-04-18T10:55:32.299Z,7.70
2023-04-18T11:00:35.267Z,6.60
2023-04-18T11:05:37.970Z,7.40
2023-04-18T11:10:41.116Z,5.80
2023-04-18T11:15:43.710Z,4.90
2023-04-18T11:20:51.188Z,4.30
2023-04-18T11:25:56.398Z,4.60
2023-04-18T11:31:00.246Z,3.90
2023-04-18T11:36:03.061Z,4.50
2023-04-18T11:41:05.744Z,5.80
2023-04-18T11:46:08.512Z,4.60
2023-04-18T11:51:35.565Z,6.40
2023-04-18T11:56:48.582Z,8.30
2023-04-18T12:02:08.851Z,6.60
2023-04-18T12:07:33.547Z,7.90
2023-04-18T12:12:36.548Z,4.20
2023-04-18T12:17:40.156Z,7.70
2023-04-18T12:22:45.650Z,8.60
2023-04-18T12:27:49.858Z,6.40
2023-04-18T12:32:59.916Z,6.00
2023-04-18T12:38:03.221Z,9.60
2023-04-18T12:43:05.901Z,5.90
2023-04-18T12:48:08.733Z,6.80
2023-04-18T12:53:11.309Z,6.70
2023-04-18T12:58:18.429Z,5.70
2023-04-18T13:03:21.623Z,7.50
2023-04-18T13:08:24.245Z,7.10
2023-04-18T13:13:26.766Z,4.60
2023-04-18T13:18:29.274Z,4.90
2023-04-18T13:23:31.886Z,7.00
2023-04-18T13:28:34.486Z,5.50
2023-04-18T13:33:37.088Z,4.80
2023-04-18T13:38:39.656Z,6.90
2023-04-18T13:43:42.278Z,10.10
2023-04-18T13:48:45.313Z,9.70
2023-04-18T13:53:47.862Z,9.20
2023-04-18T13:58:51.044Z,10.10
2023-04-18T14:03:54.768Z,8.90
2023-04-18T14:08:58.547Z,11.80
2023-04-18T14:14:01.975Z,10.70
2023-04-18T14:19:04.663Z,10.60
2023-04-18T14:24:08.148Z,10.60
2023-04-18T14:29:11.224Z,10.30
2023-04-18T14:34:13.864Z,9.70
2023-04-18T14:39:16.602Z,11.20
2023-04-18T14:44:19.211Z,10.30
2023-04-18T14:49:22.114Z,10.40
2023-04-18T14:54:24.784Z,9.80
2023-04-18T14:59:28.745Z,10.10
2023-04-18T15:04:31.434Z,6.40
2023-04-18T15:09:37.737Z,8.60
2023-04-18T15:14:40.823Z,5.80
2023-04-18T15:19:43.400Z,6.60
2023-04-18T15:24:47.413Z,7.40
2023-04-18T15:29:49.976Z,8.70
2023-04-18T15:34:52.578Z,13.20
2023-04-18T15:39:55.299Z,9.60
2023-04-18T15:44:58.068Z,12.70
2023-04-18T15:50:00.957Z,11.50
2023-04-18T15:55:05.124Z,8.70
2023-04-18T16:00:16.100Z,14.10
2023-04-18T16:05:18.994Z,10.60
2023-04-18T16:10:21.939Z,11.30
2023-04-18T16:15:24.538Z,12.60
2023-04-18T16:20:27.928Z,13.60
2023-04-18T16:25:30.686Z,11.80
2023-04-18T16:30:33.238Z,12.00
2023-04-18T16:35:35.780Z,12.30
2023-04-18T16:40:38.608Z,14.40
2023-04-18T16:45:41.404Z,11.70
2023-04-18T16:50:47.011Z,14.30
2023-04-18T16:55:50.412Z,15.40
2023-04-18T17:00:53.214Z,16.60
2023-04-18T17:05:56.015Z,10.80
2023-04-18T17:10:59.639Z,16.60
2023-04-18T17:16:02.417Z,15.50
2023-04-18T17:21:05.011Z,13.80
2023-04-18T17:26:08.946Z,12.00
2023-04-18T17:31:14.794Z,13.30
2023-04-18T17:36:17.615Z,9.10
2023-04-18T17:41:24.062Z,9.50
2023-04-18T17:46:26.866Z,11.50
2023-04-18T17:51:29.781Z,12.20
2023-04-18T17:56:32.478Z,13.00
2023-04-18T18:01:37.741Z,10.60
2023-04-18T18:06:42.215Z,15.30
2023-04-18T18:11:44.865Z,13.30
2023-04-18T18:16:47.429Z,10.40
2023-04-18T18:21:50.545Z,16.90
2023-04-18T18:26:53.323Z,12.30
2023-04-18T18:31:56.350Z,12.90
2023-04-18T18:36:58.981Z,12.90
2023-04-18T18:42:02.419Z,12.20
2023-04-18T18:47:05.791Z,14.50
2023-04-18T18:52:08.317Z,14.30
2023-04-18T18:57:12.086Z,15.30
2023-04-18T19:02:23.961Z,10.40
2023-04-18T19:07:28.875Z,16.20
2023-04-18T19:12:32.611Z,13.60
2023-04-18T19:17:35.769Z,8.40
2023-04-18T19:22:39.136Z,12.10
2023-04-18T19:27:42.413Z,14.50
2023-04-18T19:32:45.835Z,15.90
2023-04-18T19:37:48.648Z,11.90
2023-04-18T19:42:51.255Z,11.30
2023-04-18T19:47:53.915Z,12.00
2023-04-18T19:52:56.559Z,13.10
2023-04-18T19:58:00.024Z,13.60
2023-04-18T20:03:02.898Z,11.40
2023-04-18T20:08:06.023Z,13.60
2023-04-18T20:13:08.761Z,10.90
2023-04-18T20:18:11.686Z,11.00
2023-04-18T20:23:14.513Z,11.30
2023-04-18T20:28:17.188Z,12.20
2023-04-18T20:33:19.823Z,12.40
2023-04-18T20:38:26.176Z,12.40
2023-04-18T20:43:28.914Z,13.40
2023-04-18T20:48:31.468Z,11.30
2023-04-18T20:53:34.108Z,11.00
2023-04-18T20:58:36.684Z,9.10
2023-04-18T21:03:39.321Z,12.00
2023-04-18T21:08:42.067Z,9.30
2023-04-18T21:13:44.654Z,11.30
2023-04-18T21:18:47.196Z,10.30
2023-04-18T21:23:49.755Z,10.30
2023-04-18T21:28:57.841Z,9.70
2023-04-18T21:34:02.759Z,9.60
2023-04-18T21:39:05.541Z,13.50
2023-04-18T21:44:08.152Z,8.40
2023-04-18T21:49:10.738Z,9.30
2023-04-18T21:54:13.779Z,7.10
2023-04-18T21:59:19.504Z,6.40
2023-04-18T22:04:26.126Z,7.00
2023-04-18T22:09:29.669Z,9.40
2023-04-18T22:14:32.319Z,8.40
2023-04-18T22:19:35.619Z,8.50
2023-04-18T22:24:38.198Z,9.10
2023-04-18T22:29:40.919Z,8.10
2023-04-18T22:34:44.735Z,10.80
2023-04-18T22:39:47.294Z,8.40
2023-04-18T22:44:49.892Z,10.60
2023-04-18T22:49:56.435Z,9.20
2023-04-18T22:54:58.943Z,11.50
2023-04-18T23:00:01.552Z,8.10
2023-04-18T23:05:05.812Z,8.80
2023-04-18T23:10:09.195Z,7.30
2023-04-18T23:15:11.981Z,13.40
2023-04-18T23:20:14.675Z,8.20
2023-04-18T23:25:17.586Z,9.10
2023-04-18T23:30:20.168Z,10.40
2023-04-18T23:35:22.666Z,13.30
2023-04-18T23:40:25.364Z,8.10
2023-04-18T23:45:31.040Z,7.30
2023-04-18T23:50:35.432Z,8.60
2023-04-18T23:55:37.986Z,8.70
